CheckWX is a tool to help pilots better visualize weather data.  It is not intended as a substitute for an official pre-flight weather briefing.

01:25:19 UTC

KJBR METAR
Jonesboro Municipal Airport
Jonesboro, Arkansas, USA
Current

32 mins ago

KJBR 200053Z AUTO 19008KT 10SM CLR 31/24 A2994 RMK AO2 SLP136 T03060239
Observed
Jul-20 @ 00:53 UTC
Wind
  • 190° at 8 KTS
Visibility
10 SM
Flight Rules
VFR
Cloud Levels
  • Clear skies
Temperature
31°C / 88°F
Dewpoint
24°C / 75°F
Heat Index
37°C / 98°F
Humidity
66%
Altimeter
29.94" Hg
Pressure
1013.92 hPa
Previous

2 hours ago

KJBR 192353Z AUTO 19010KT 10SM CLR 32/23 A2994 RMK AO2 SLP136 T03170233 10333 20317 56010
Observed
Jul-19 @ 23:53 UTC
Wind
  • 190° at 10 KTS
Visibility
10 SM
Flight Rules
VFR
Cloud Levels
  • Clear skies
Temperature
32°C / 90°F
Dewpoint
23°C / 73°F
Heat Index
37°C / 99°F
Humidity
59%
Altimeter
29.94" Hg
Pressure
1013.92 hPa
Previous

3 hours ago

KJBR 192253Z AUTO 20011KT 10SM FEW037 33/24 A2995 RMK AO2 SLP138 T03280244
Observed
Jul-19 @ 22:53 UTC
Wind
  • 200° at 11 KTS
Visibility
10 SM
Flight Rules
VFR
Cloud Levels
  • Few at 3,700' AGL
Temperature
33°C / 91°F
Dewpoint
24°C / 75°F
Heat Index
39°C / 102°F
Humidity
59%
Altimeter
29.95" Hg
Pressure
1014.22 hPa